Xing Ru Hai — VRPB4 — position and weather

sailwx.info

Track history (hours):
 
Tides and Currents Weather Stations Pressure Air Temp Water Temp Dewpoint Dewpoint Depression Visibility Wind Speed Wind Dir Waves Ship Positions

Xing Ru Hai

Last reported at 2018-Jun-24 17:17 UTC. Time now 2018-Jun-25 02:17 UTC.
Position N 34°26' E 134°09'.

Length 179 m; draft 9.4 m.

Type: Cargo ship. MMSI: 477713500.

Date/timePositionNaut miles runAvg speedWind from/ knotsBaromVisibWave heightAir tempDewpointWater temp
2018-Jun-24 17:17N 34°26' E 134°09'311.7
2018-Jun-24 17:00N 34°25' E 134°13'611.5
2018-Jun-24 16:29N 34°25' E 134°20'611.8
2018-Jun-24 16:00N 34°27' E 134°27'611.7
2018-Jun-24 15:30N 34°29' E 134°33'611.4
2018-Jun-24 15:00N 34°31' E 134°40'611.7
2018-Jun-24 14:31N 34°33' E 134°46'611.4
2018-Jun-24 14:00N 34°35' E 134°53'611.1
2018-Jun-24 13:30N 34°38' E 134°59'511.0
2018-Jun-24 13:00N 34°35' E 135°05'4 7.2
2018-Jun-24 12:29N 34°32' E 135°07'5 9.6
2018-Jun-24 12:00N 34°28' E 135°05'611.9
2018-Jun-24 11:30N 34°23' E 135°02'713.2
2018-Jun-24 11:01N 34°16' E 134°59'612.2
2018-Jun-24 10:30N 34°10' E 134°59'4 8.2
2018-Jun-24 10:00N 34°06' E 134°59'4 8.0
2018-Jun-24 09:31N 34°02' E 134°59'3 6.7
2018-Jun-24 09:00N 33°59' E 134°59'3 6.9
2018-Jun-24 08:30N 33°55' E 134°59'4 7.1
2018-Jun-24 08:00N 33°52' E 134°59'3 6.8
2018-Jun-24 07:30N 33°49' E 135°01'4 7.1
2018-Jun-24 07:01N 33°46' E 135°03'4 6.9
2018-Jun-24 06:30N 33°44' E 135°06'4 7.2
2018-Jun-24 05:57N 33°41' E 135°09'3 6.9
2018-Jun-24 05:29N 33°38' E 135°12'  
Track history (hours):
 
Tides and Currents Weather Stations Pressure Air Temp Water Temp Dewpoint Dewpoint Depression Visibility Wind Speed Wind Dir Waves Ship Positions

Xing Ru Hai

Last reported at 2018-Jun-24 17:17 UTC. Time now 2018-Jun-25 02:17 UTC.
Position N 34°26' E 134°09'.

Length 179 m; draft 9.4 m.

Type: Cargo ship. MMSI: 477713500.

Date/timePositionNaut miles runAvg speedWind from/ knotsBaromVisibWave heightAir tempDewpointWater temp
2018-Jun-24 17:17N 34°26' E 134°09'311.7
2018-Jun-24 17:00N 34°25' E 134°13'611.5
2018-Jun-24 16:29N 34°25' E 134°20'611.8
2018-Jun-24 16:00N 34°27' E 134°27'611.7
2018-Jun-24 15:30N 34°29' E 134°33'611.4
2018-Jun-24 15:00N 34°31' E 134°40'611.7
2018-Jun-24 14:31N 34°33' E 134°46'611.4
2018-Jun-24 14:00N 34°35' E 134°53'611.1
2018-Jun-24 13:30N 34°38' E 134°59'511.0
2018-Jun-24 13:00N 34°35' E 135°05'4 7.2
2018-Jun-24 12:29N 34°32' E 135°07'5 9.6
2018-Jun-24 12:00N 34°28' E 135°05'611.9
2018-Jun-24 11:30N 34°23' E 135°02'713.2
2018-Jun-24 11:01N 34°16' E 134°59'612.2
2018-Jun-24 10:30N 34°10' E 134°59'4 8.2
2018-Jun-24 10:00N 34°06' E 134°59'4 8.0
2018-Jun-24 09:31N 34°02' E 134°59'3 6.7
2018-Jun-24 09:00N 33°59' E 134°59'3 6.9
2018-Jun-24 08:30N 33°55' E 134°59'4 7.1
2018-Jun-24 08:00N 33°52' E 134°59'3 6.8
2018-Jun-24 07:30N 33°49' E 135°01'4 7.1
2018-Jun-24 07:01N 33°46' E 135°03'4 6.9
2018-Jun-24 06:30N 33°44' E 135°06'4 7.2
2018-Jun-24 05:57N 33°41' E 135°09'3 6.9
2018-Jun-24 05:29N 33°38' E 135°12'  

Dump ship's entire track history